sensor_id;sensor_type;location;lat;lon;timestamp;P1;durP1;ratioP1;P2;durP2;ratioP2
66739;SDS011;53653;52.188;8.602;2023-12-14T00:02:14;6.87;;;2.50;;
66739;SDS011;53653;52.188;8.602;2023-12-14T00:04:40;7.23;;;2.67;;
66739;SDS011;53653;52.188;8.602;2023-12-14T00:07:06;10.27;;;3.83;;
66739;SDS011;53653;52.188;8.602;2023-12-14T00:09:31;8.50;;;3.73;;
66739;SDS011;53653;52.188;8.602;2023-12-14T00:11:57;9.63;;;3.93;;
66739;SDS011;53653;52.188;8.602;2023-12-14T00:14:22;9.93;;;3.97;;
66739;SDS011;53653;52.188;8.602;2023-12-14T00:16:47;9.37;;;3.10;;
66739;SDS011;53653;52.188;8.602;2023-12-14T00:19:14;10.57;;;4.28;;
66739;SDS011;53653;52.188;8.602;2023-12-14T00:21:40;10.90;;;3.70;;
66739;SDS011;53653;52.188;8.602;2023-12-14T00:24:06;6.13;;;2.33;;
66739;SDS011;53653;52.188;8.602;2023-12-14T00:26:31;7.72;;;3.05;;
66739;SDS011;53653;52.188;8.602;2023-12-14T00:28:57;8.77;;;3.67;;
66739;SDS011;53653;52.188;8.602;2023-12-14T00:31:22;8.03;;;2.73;;
66739;SDS011;53653;52.188;8.602;2023-12-14T00:33:48;7.57;;;2.80;;
66739;SDS011;53653;52.188;8.602;2023-12-14T00:36:22;8.93;;;3.17;;
66739;SDS011;53653;52.188;8.602;2023-12-14T00:38:47;6.95;;;2.78;;
66739;SDS011;53653;52.188;8.602;2023-12-14T00:41:13;8.93;;;3.23;;
66739;SDS011;53653;52.188;8.602;2023-12-14T00:43:38;8.27;;;3.10;;
66739;SDS011;53653;52.188;8.602;2023-12-14T00:46:04;5.87;;;2.37;;
66739;SDS011;53653;52.188;8.602;2023-12-14T00:48:29;10.67;;;3.90;;
66739;SDS011;53653;52.188;8.602;2023-12-14T00:50:55;6.50;;;2.27;;
66739;SDS011;53653;52.188;8.602;2023-12-14T00:53:20;7.30;;;3.10;;
66739;SDS011;53653;52.188;8.602;2023-12-14T00:55:46;6.93;;;2.87;;
66739;SDS011;53653;52.188;8.602;2023-12-14T00:58:11;8.23;;;2.50;;
66739;SDS011;53653;52.188;8.602;2023-12-14T01:00:40;7.25;;;2.95;;
66739;SDS011;53653;52.188;8.602;2023-12-14T01:03:06;8.18;;;2.97;;
66739;SDS011;53653;52.188;8.602;2023-12-14T01:05:32;8.43;;;3.17;;
66739;SDS011;53653;52.188;8.602;2023-12-14T01:07:57;10.30;;;3.97;;
66739;SDS011;53653;52.188;8.602;2023-12-14T01:10:22;8.17;;;3.37;;
66739;SDS011;53653;52.188;8.602;2023-12-14T01:12:48;8.52;;;3.30;;
66739;SDS011;53653;52.188;8.602;2023-12-14T01:15:13;12.57;;;3.90;;
66739;SDS011;53653;52.188;8.602;2023-12-14T01:17:39;7.67;;;2.73;;
66739;SDS011;53653;52.188;8.602;2023-12-14T01:20:05;12.43;;;3.23;;
66739;SDS011;53653;52.188;8.602;2023-12-14T01:22:32;9.05;;;3.63;;
66739;SDS011;53653;52.188;8.602;2023-12-14T01:24:57;6.63;;;1.93;;
66739;SDS011;53653;52.188;8.602;2023-12-14T01:27:23;6.20;;;2.25;;
66739;SDS011;53653;52.188;8.602;2023-12-14T01:29:48;7.30;;;1.93;;
66739;SDS011;53653;52.188;8.602;2023-12-14T01:32:14;8.03;;;3.00;;
66739;SDS011;53653;52.188;8.602;2023-12-14T01:34:39;7.40;;;2.60;;
66739;SDS011;53653;52.188;8.602;2023-12-14T01:37:05;6.50;;;2.55;;
66739;SDS011;53653;52.188;8.602;2023-12-14T01:39:30;11.80;;;3.60;;
66739;SDS011;53653;52.188;8.602;2023-12-14T01:41:56;15.27;;;3.50;;
66739;SDS011;53653;52.188;8.602;2023-12-14T01:44:21;9.50;;;3.07;;
66739;SDS011;53653;52.188;8.602;2023-12-14T01:46:46;6.55;;;2.53;;
66739;SDS011;53653;52.188;8.602;2023-12-14T01:49:12;8.13;;;2.50;;
66739;SDS011;53653;52.188;8.602;2023-12-14T01:51:37;7.43;;;2.90;;
66739;SDS011;53653;52.188;8.602;2023-12-14T01:54:03;8.53;;;3.77;;
66739;SDS011;53653;52.188;8.602;2023-12-14T01:56:28;9.87;;;3.50;;
66739;SDS011;53653;52.188;8.602;2023-12-14T01:58:53;7.78;;;3.03;;
66739;SDS011;53653;52.188;8.602;2023-12-14T02:04:10;10.40;;;3.60;;
66739;SDS011;53653;52.188;8.602;2023-12-14T02:06:37;12.27;;;4.23;;
66739;SDS011;53653;52.188;8.602;2023-12-14T02:09:03;11.77;;;4.32;;
66739;SDS011;53653;52.188;8.602;2023-12-14T02:11:28;11.03;;;4.03;;
66739;SDS011;53653;52.188;8.602;2023-12-14T02:13:54;11.80;;;4.40;;
66739;SDS011;53653;52.188;8.602;2023-12-14T02:16:19;12.50;;;3.87;;
66739;SDS011;53653;52.188;8.602;2023-12-14T02:18:45;11.83;;;4.90;;
66739;SDS011;53653;52.188;8.602;2023-12-14T02:21:10;14.20;;;5.57;;
66739;SDS011;53653;52.188;8.602;2023-12-14T02:23:42;7.73;;;3.27;;
66739;SDS011;53653;52.188;8.602;2023-12-14T02:26:10;12.25;;;5.22;;
66739;SDS011;53653;52.188;8.602;2023-12-14T02:28:39;13.50;;;5.35;;
66739;SDS011;53653;52.188;8.602;2023-12-14T02:31:04;15.70;;;6.23;;
66739;SDS011;53653;52.188;8.602;2023-12-14T02:33:30;11.50;;;4.68;;
66739;SDS011;53653;52.188;8.602;2023-12-14T02:35:56;10.27;;;4.10;;
66739;SDS011;53653;52.188;8.602;2023-12-14T02:38:21;7.33;;;3.20;;
66739;SDS011;53653;52.188;8.602;2023-12-14T02:40:46;9.27;;;3.28;;
66739;SDS011;53653;52.188;8.602;2023-12-14T02:43:12;8.67;;;3.40;;
66739;SDS011;53653;52.188;8.602;2023-12-14T02:45:38;10.13;;;3.73;;
66739;SDS011;53653;52.188;8.602;2023-12-14T02:48:03;11.95;;;4.50;;
66739;SDS011;53653;52.188;8.602;2023-12-14T02:50:29;11.10;;;4.40;;
66739;SDS011;53653;52.188;8.602;2023-12-14T02:52:55;11.33;;;4.27;;
66739;SDS011;53653;52.188;8.602;2023-12-14T02:55:20;9.10;;;3.70;;
66739;SDS011;53653;52.188;8.602;2023-12-14T02:57:46;12.35;;;5.03;;
66739;SDS011;53653;52.188;8.602;2023-12-14T03:00:12;10.10;;;3.47;;
66739;SDS011;53653;52.188;8.602;2023-12-14T03:02:37;11.68;;;3.83;;
66739;SDS011;53653;52.188;8.602;2023-12-14T03:05:03;10.90;;;4.63;;
66739;SDS011;53653;52.188;8.602;2023-12-14T03:07:28;8.07;;;2.97;;
66739;SDS011;53653;52.188;8.602;2023-12-14T03:09:54;7.93;;;3.10;;
66739;SDS011;53653;52.188;8.602;2023-12-14T03:12:19;12.40;;;5.83;;
66739;SDS011;53653;52.188;8.602;2023-12-14T03:14:45;13.73;;;4.77;;
66739;SDS011;53653;52.188;8.602;2023-12-14T03:17:10;11.27;;;4.23;;
66739;SDS011;53653;52.188;8.602;2023-12-14T03:19:42;11.23;;;4.95;;
66739;SDS011;53653;52.188;8.602;2023-12-14T03:22:08;13.15;;;4.57;;
66739;SDS011;53653;52.188;8.602;2023-12-14T03:24:34;13.85;;;5.57;;
66739;SDS011;53653;52.188;8.602;2023-12-14T03:27:01;15.27;;;5.73;;
66739;SDS011;53653;52.188;8.602;2023-12-14T03:29:27;13.63;;;5.47;;
66739;SDS011;53653;52.188;8.602;2023-12-14T03:31:54;10.38;;;3.75;;
66739;SDS011;53653;52.188;8.602;2023-12-14T03:34:20;14.63;;;6.25;;
66739;SDS011;53653;52.188;8.602;2023-12-14T03:36:46;16.57;;;6.53;;
66739;SDS011;53653;52.188;8.602;2023-12-14T03:39:11;10.80;;;4.63;;
66739;SDS011;53653;52.188;8.602;2023-12-14T03:41:37;16.90;;;6.18;;
66739;SDS011;53653;52.188;8.602;2023-12-14T03:44:02;13.03;;;5.03;;
66739;SDS011;53653;52.188;8.602;2023-12-14T03:46:29;14.05;;;5.45;;
66739;SDS011;53653;52.188;8.602;2023-12-14T03:48:54;14.43;;;6.47;;
66739;SDS011;53653;52.188;8.602;2023-12-14T03:51:20;16.40;;;6.47;;
66739;SDS011;53653;52.188;8.602;2023-12-14T03:53:46;17.73;;;6.97;;
66739;SDS011;53653;52.188;8.602;2023-12-14T03:56:11;15.13;;;7.35;;
66739;SDS011;53653;52.188;8.602;2023-12-14T03:58:37;10.53;;;4.53;;
66739;SDS011;53653;52.188;8.602;2023-12-14T04:01:02;9.70;;;4.23;;
66739;SDS011;53653;52.188;8.602;2023-12-14T04:03:28;12.48;;;4.22;;
66739;SDS011;53653;52.188;8.602;2023-12-14T04:05:53;17.73;;;6.67;;
66739;SDS011;53653;52.188;8.602;2023-12-14T04:08:19;16.03;;;6.07;;
66739;SDS011;53653;52.188;8.602;2023-12-14T04:10:44;11.53;;;5.23;;
66739;SDS011;53653;52.188;8.602;2023-12-14T04:13:10;14.53;;;6.43;;
66739;SDS011;53653;52.188;8.602;2023-12-14T04:15:35;14.80;;;6.10;;
66739;SDS011;53653;52.188;8.602;2023-12-14T04:18:01;18.20;;;6.70;;
66739;SDS011;53653;52.188;8.602;2023-12-14T04:20:26;9.10;;;3.38;;
66739;SDS011;53653;52.188;8.602;2023-12-14T04:22:52;11.83;;;5.40;;
66739;SDS011;53653;52.188;8.602;2023-12-14T04:25:17;15.20;;;5.87;;
66739;SDS011;53653;52.188;8.602;2023-12-14T04:27:42;16.33;;;6.50;;
66739;SDS011;53653;52.188;8.602;2023-12-14T04:30:08;13.77;;;5.82;;
66739;SDS011;53653;52.188;8.602;2023-12-14T04:32:37;11.50;;;5.77;;
66739;SDS011;53653;52.188;8.602;2023-12-14T04:35:03;12.95;;;5.85;;
66739;SDS011;53653;52.188;8.602;2023-12-14T04:37:29;11.93;;;4.85;;
66739;SDS011;53653;52.188;8.602;2023-12-14T04:39:56;8.07;;;3.30;;
66739;SDS011;53653;52.188;8.602;2023-12-14T04:42:22;13.30;;;5.53;;
66739;SDS011;53653;52.188;8.602;2023-12-14T04:44:47;15.37;;;6.43;;
66739;SDS011;53653;52.188;8.602;2023-12-14T04:47:12;11.13;;;4.57;;
66739;SDS011;53653;52.188;8.602;2023-12-14T04:49:38;14.83;;;6.17;;
66739;SDS011;53653;52.188;8.602;2023-12-14T04:52:03;14.43;;;6.30;;
66739;SDS011;53653;52.188;8.602;2023-12-14T04:54:29;9.88;;;4.20;;
66739;SDS011;53653;52.188;8.602;2023-12-14T04:56:55;12.65;;;5.28;;
66739;SDS011;53653;52.188;8.602;2023-12-14T04:59:20;14.00;;;6.07;;
66739;SDS011;53653;52.188;8.602;2023-12-14T05:01:45;12.23;;;4.57;;
66739;SDS011;53653;52.188;8.602;2023-12-14T05:04:11;13.00;;;5.83;;
66739;SDS011;53653;52.188;8.602;2023-12-14T05:06:37;14.93;;;5.77;;
66739;SDS011;53653;52.188;8.602;2023-12-14T05:09:03;12.02;;;5.32;;
66739;SDS011;53653;52.188;8.602;2023-12-14T05:11:30;16.02;;;5.75;;
66739;SDS011;53653;52.188;8.602;2023-12-14T05:13:56;15.33;;;6.00;;
66739;SDS011;53653;52.188;8.602;2023-12-14T05:16:22;13.37;;;5.77;;
66739;SDS011;53653;52.188;8.602;2023-12-14T05:18:52;14.48;;;6.00;;
66739;SDS011;53653;52.188;8.602;2023-12-14T05:21:20;17.80;;;8.03;;
66739;SDS011;53653;52.188;8.602;2023-12-14T05:23:46;13.40;;;6.40;;
66739;SDS011;53653;52.188;8.602;2023-12-14T05:26:11;17.30;;;6.67;;
66739;SDS011;53653;52.188;8.602;2023-12-14T05:28:37;9.87;;;4.27;;
66739;SDS011;53653;52.188;8.602;2023-12-14T05:31:02;13.07;;;5.93;;
66739;SDS011;53653;52.188;8.602;2023-12-14T05:33:28;9.93;;;4.05;;
66739;SDS011;53653;52.188;8.602;2023-12-14T05:35:53;13.07;;;6.10;;
66739;SDS011;53653;52.188;8.602;2023-12-14T05:38:19;16.30;;;5.75;;
66739;SDS011;53653;52.188;8.602;2023-12-14T05:40:44;12.73;;;6.07;;
66739;SDS011;53653;52.188;8.602;2023-12-14T05:43:10;18.10;;;6.57;;
66739;SDS011;53653;52.188;8.602;2023-12-14T05:45:36;13.27;;;6.28;;
66739;SDS011;53653;52.188;8.602;2023-12-14T05:48:01;15.63;;;6.80;;
66739;SDS011;53653;52.188;8.602;2023-12-14T05:50:29;15.73;;;7.50;;
66739;SDS011;53653;52.188;8.602;2023-12-14T05:52:54;14.43;;;6.30;;
66739;SDS011;53653;52.188;8.602;2023-12-14T05:55:20;13.87;;;5.90;;
66739;SDS011;53653;52.188;8.602;2023-12-14T05:57:49;13.65;;;5.90;;
66739;SDS011;53653;52.188;8.602;2023-12-14T06:00:15;11.60;;;5.22;;
66739;SDS011;53653;52.188;8.602;2023-12-14T06:02:41;11.75;;;5.00;;
66739;SDS011;53653;52.188;8.602;2023-12-14T06:05:07;15.93;;;6.63;;
66739;SDS011;53653;52.188;8.602;2023-12-14T06:07:33;14.98;;;6.80;;
66739;SDS011;53653;52.188;8.602;2023-12-14T06:09:59;16.20;;;6.90;;
66739;SDS011;53653;52.188;8.602;2023-12-14T06:12:26;16.20;;;7.00;;
66739;SDS011;53653;52.188;8.602;2023-12-14T06:14:51;16.53;;;7.47;;
66739;SDS011;53653;52.188;8.602;2023-12-14T06:17:16;16.70;;;7.80;;
66739;SDS011;53653;52.188;8.602;2023-12-14T06:19:42;17.08;;;8.75;;
66739;SDS011;53653;52.188;8.602;2023-12-14T06:22:07;16.53;;;7.63;;
66739;SDS011;53653;52.188;8.602;2023-12-14T06:24:33;15.73;;;7.13;;
66739;SDS011;53653;52.188;8.602;2023-12-14T06:26:58;17.17;;;8.00;;
66739;SDS011;53653;52.188;8.602;2023-12-14T06:29:24;18.23;;;7.60;;
66739;SDS011;53653;52.188;8.602;2023-12-14T06:31:49;21.17;;;7.93;;
66739;SDS011;53653;52.188;8.602;2023-12-14T06:34:16;15.65;;;7.32;;
66739;SDS011;53653;52.188;8.602;2023-12-14T06:36:42;17.67;;;8.27;;
66739;SDS011;53653;52.188;8.602;2023-12-14T06:39:08;13.52;;;5.63;;
66739;SDS011;53653;52.188;8.602;2023-12-14T06:41:33;11.67;;;4.27;;
66739;SDS011;53653;52.188;8.602;2023-12-14T06:43:59;18.27;;;8.60;;
66739;SDS011;53653;52.188;8.602;2023-12-14T06:46:24;20.60;;;7.33;;
66739;SDS011;53653;52.188;8.602;2023-12-14T06:48:50;15.30;;;6.97;;
66739;SDS011;53653;52.188;8.602;2023-12-14T06:51:15;17.33;;;7.57;;
66739;SDS011;53653;52.188;8.602;2023-12-14T06:53:41;15.53;;;7.20;;
66739;SDS011;53653;52.188;8.602;2023-12-14T06:56:08;15.20;;;6.78;;
66739;SDS011;53653;52.188;8.602;2023-12-14T06:58:36;16.27;;;7.00;;
66739;SDS011;53653;52.188;8.602;2023-12-14T07:01:02;16.40;;;7.43;;
66739;SDS011;53653;52.188;8.602;2023-12-14T07:03:27;15.18;;;7.00;;
66739;SDS011;53653;52.188;8.602;2023-12-14T07:05:53;12.07;;;5.40;;
66739;SDS011;53653;52.188;8.602;2023-12-14T07:08:18;16.03;;;6.30;;
66739;SDS011;53653;52.188;8.602;2023-12-14T07:10:44;16.70;;;7.00;;
66739;SDS011;53653;52.188;8.602;2023-12-14T07:13:09;12.05;;;5.78;;
66739;SDS011;53653;52.188;8.602;2023-12-14T07:15:35;14.40;;;7.07;;
66739;SDS011;53653;52.188;8.602;2023-12-14T07:18:00;9.27;;;2.97;;
66739;SDS011;53653;52.188;8.602;2023-12-14T07:20:26;12.60;;;6.53;;
66739;SDS011;53653;52.188;8.602;2023-12-14T07:22:52;10.57;;;4.72;;
66739;SDS011;53653;52.188;8.602;2023-12-14T07:25:18;9.33;;;4.77;;
66739;SDS011;53653;52.188;8.602;2023-12-14T07:27:43;12.05;;;5.05;;
66739;SDS011;53653;52.188;8.602;2023-12-14T07:30:09;8.80;;;3.63;;
66739;SDS011;53653;52.188;8.602;2023-12-14T07:32:35;11.55;;;5.22;;
66739;SDS011;53653;52.188;8.602;2023-12-14T07:35:00;8.67;;;4.20;;
66739;SDS011;53653;52.188;8.602;2023-12-14T07:37:26;11.33;;;4.90;;
66739;SDS011;53653;52.188;8.602;2023-12-14T07:39:51;8.80;;;4.00;;
66739;SDS011;53653;52.188;8.602;2023-12-14T07:42:17;11.17;;;5.30;;
66739;SDS011;53653;52.188;8.602;2023-12-14T07:44:45;10.05;;;4.82;;
66739;SDS011;53653;52.188;8.602;2023-12-14T07:47:11;10.32;;;4.07;;
66739;SDS011;53653;52.188;8.602;2023-12-14T07:49:36;10.03;;;4.50;;
66739;SDS011;53653;52.188;8.602;2023-12-14T07:52:02;10.13;;;4.87;;
66739;SDS011;53653;52.188;8.602;2023-12-14T07:54:27;11.25;;;5.65;;
66739;SDS011;53653;52.188;8.602;2023-12-14T07:56:53;13.85;;;5.80;;
66739;SDS011;53653;52.188;8.602;2023-12-14T07:59:18;13.13;;;5.70;;
66739;SDS011;53653;52.188;8.602;2023-12-14T08:01:44;10.40;;;4.80;;
66739;SDS011;53653;52.188;8.602;2023-12-14T08:04:09;7.57;;;2.93;;
66739;SDS011;53653;52.188;8.602;2023-12-14T08:06:36;8.68;;;3.60;;
66739;SDS011;53653;52.188;8.602;2023-12-14T08:09:04;10.25;;;4.50;;
66739;SDS011;53653;52.188;8.602;2023-12-14T08:11:31;12.48;;;6.07;;
66739;SDS011;53653;52.188;8.602;2023-12-14T08:13:57;10.95;;;5.43;;
66739;SDS011;53653;52.188;8.602;2023-12-14T08:16:23;11.93;;;6.10;;
66739;SDS011;53653;52.188;8.602;2023-12-14T08:18:49;15.25;;;5.82;;
66739;SDS011;53653;52.188;8.602;2023-12-14T08:21:14;13.57;;;5.23;;
66739;SDS011;53653;52.188;8.602;2023-12-14T08:23:41;11.90;;;5.13;;
66739;SDS011;53653;52.188;8.602;2023-12-14T08:26:07;13.35;;;5.43;;
66739;SDS011;53653;52.188;8.602;2023-12-14T08:28:33;11.55;;;5.50;;
66739;SDS011;53653;52.188;8.602;2023-12-14T08:30:59;14.77;;;5.82;;
66739;SDS011;53653;52.188;8.602;2023-12-14T08:33:28;11.37;;;3.60;;
66739;SDS011;53653;52.188;8.602;2023-12-14T08:35:54;11.70;;;5.20;;
66739;SDS011;53653;52.188;8.602;2023-12-14T08:38:21;10.95;;;5.25;;
66739;SDS011;53653;52.188;8.602;2023-12-14T08:40:47;12.90;;;5.90;;
66739;SDS011;53653;52.188;8.602;2023-12-14T08:43:12;17.47;;;6.77;;
66739;SDS011;53653;52.188;8.602;2023-12-14T08:45:38;13.50;;;6.83;;
66739;SDS011;53653;52.188;8.602;2023-12-14T08:48:04;11.70;;;5.30;;
66739;SDS011;53653;52.188;8.602;2023-12-14T08:50:30;13.07;;;6.43;;
66739;SDS011;53653;52.188;8.602;2023-12-14T08:52:55;12.38;;;6.28;;
66739;SDS011;53653;52.188;8.602;2023-12-14T08:55:23;13.48;;;6.38;;
66739;SDS011;53653;52.188;8.602;2023-12-14T08:57:49;13.53;;;7.10;;
66739;SDS011;53653;52.188;8.602;2023-12-14T09:00:16;14.65;;;7.18;;
66739;SDS011;53653;52.188;8.602;2023-12-14T09:02:44;10.57;;;5.05;;
66739;SDS011;53653;52.188;8.602;2023-12-14T09:05:13;13.07;;;6.20;;
66739;SDS011;53653;52.188;8.602;2023-12-14T09:07:39;11.98;;;6.10;;
66739;SDS011;53653;52.188;8.602;2023-12-14T09:10:05;15.37;;;6.43;;
66739;SDS011;53653;52.188;8.602;2023-12-14T09:12:32;14.98;;;6.53;;
66739;SDS011;53653;52.188;8.602;2023-12-14T09:14:58;13.75;;;6.30;;
66739;SDS011;53653;52.188;8.602;2023-12-14T09:17:24;13.30;;;6.23;;
66739;SDS011;53653;52.188;8.602;2023-12-14T09:19:50;13.75;;;6.78;;
66739;SDS011;53653;52.188;8.602;2023-12-14T09:22:15;14.13;;;6.37;;
66739;SDS011;53653;52.188;8.602;2023-12-14T09:24:41;8.63;;;3.35;;
66739;SDS011;53653;52.188;8.602;2023-12-14T09:27:06;14.47;;;6.70;;
66739;SDS011;53653;52.188;8.602;2023-12-14T09:29:32;13.53;;;5.40;;
66739;SDS011;53653;52.188;8.602;2023-12-14T09:31:57;17.08;;;7.30;;
66739;SDS011;53653;52.188;8.602;2023-12-14T09:34:23;14.10;;;6.07;;
66739;SDS011;53653;52.188;8.602;2023-12-14T09:36:49;14.32;;;6.38;;
66739;SDS011;53653;52.188;8.602;2023-12-14T09:39:14;15.07;;;7.07;;
66739;SDS011;53653;52.188;8.602;2023-12-14T09:41:40;16.80;;;6.47;;
66739;SDS011;53653;52.188;8.602;2023-12-14T09:44:06;16.23;;;7.00;;
66739;SDS011;53653;52.188;8.602;2023-12-14T09:46:36;15.98;;;6.90;;
66739;SDS011;53653;52.188;8.602;2023-12-14T09:49:02;16.23;;;6.40;;
66739;SDS011;53653;52.188;8.602;2023-12-14T09:51:29;10.07;;;3.85;;
66739;SDS011;53653;52.188;8.602;2023-12-14T09:53:55;15.73;;;5.72;;
66739;SDS011;53653;52.188;8.602;2023-12-14T09:56:26;17.35;;;5.95;;
66739;SDS011;53653;52.188;8.602;2023-12-14T09:58:52;14.32;;;5.45;;
66739;SDS011;53653;52.188;8.602;2023-12-14T10:01:22;14.77;;;5.17;;
66739;SDS011;53653;52.188;8.602;2023-12-14T10:03:49;15.05;;;6.30;;
66739;SDS011;53653;52.188;8.602;2023-12-14T10:06:17;12.32;;;5.30;;
66739;SDS011;53653;52.188;8.602;2023-12-14T10:08:42;14.75;;;5.45;;
66739;SDS011;53653;52.188;8.602;2023-12-14T10:11:19;14.02;;;5.57;;
66739;SDS011;53653;52.188;8.602;2023-12-14T10:13:44;11.97;;;5.00;;
66739;SDS011;53653;52.188;8.602;2023-12-14T10:16:10;11.90;;;4.90;;
66739;SDS011;53653;52.188;8.602;2023-12-14T10:18:35;12.70;;;5.53;;
66739;SDS011;53653;52.188;8.602;2023-12-14T10:21:01;11.53;;;4.97;;
66739;SDS011;53653;52.188;8.602;2023-12-14T10:23:29;15.07;;;5.63;;
66739;SDS011;53653;52.188;8.602;2023-12-14T10:25:55;17.63;;;5.35;;
66739;SDS011;53653;52.188;8.602;2023-12-14T10:28:22;14.57;;;5.87;;
66739;SDS011;53653;52.188;8.602;2023-12-14T10:30:47;11.32;;;4.82;;
66739;SDS011;53653;52.188;8.602;2023-12-14T10:33:13;14.63;;;5.20;;
66739;SDS011;53653;52.188;8.602;2023-12-14T10:35:41;14.47;;;6.10;;
66739;SDS011;53653;52.188;8.602;2023-12-14T10:38:07;11.75;;;4.78;;
66739;SDS011;53653;52.188;8.602;2023-12-14T10:40:35;12.73;;;5.15;;
66739;SDS011;53653;52.188;8.602;2023-12-14T10:43:05;14.05;;;5.65;;
66739;SDS011;53653;52.188;8.602;2023-12-14T10:45:34;9.85;;;4.78;;
66739;SDS011;53653;52.188;8.602;2023-12-14T10:48:00;10.60;;;4.53;;
66739;SDS011;53653;52.188;8.602;2023-12-14T10:50:28;12.10;;;4.85;;
66739;SDS011;53653;52.188;8.602;2023-12-14T10:52:55;14.17;;;4.80;;
66739;SDS011;53653;52.188;8.602;2023-12-14T10:55:22;14.40;;;5.38;;
66739;SDS011;53653;52.188;8.602;2023-12-14T10:57:52;11.07;;;4.57;;
66739;SDS011;53653;52.188;8.602;2023-12-14T11:00:18;11.13;;;4.85;;
66739;SDS011;53653;52.188;8.602;2023-12-14T11:02:46;9.80;;;3.97;;
66739;SDS011;53653;52.188;8.602;2023-12-14T11:05:13;12.15;;;4.97;;
66739;SDS011;53653;52.188;8.602;2023-12-14T11:07:45;10.45;;;4.82;;
66739;SDS011;53653;52.188;8.602;2023-12-14T11:10:10;9.07;;;4.28;;
66739;SDS011;53653;52.188;8.602;2023-12-14T11:12:49;9.27;;;4.13;;
66739;SDS011;53653;52.188;8.602;2023-12-14T11:15:17;9.73;;;4.60;;
66739;SDS011;53653;52.188;8.602;2023-12-14T11:17:53;8.75;;;4.07;;
66739;SDS011;53653;52.188;8.602;2023-12-14T11:20:46;8.52;;;3.80;;
66739;SDS011;53653;52.188;8.602;2023-12-14T11:23:16;9.13;;;3.85;;
66739;SDS011;53653;52.188;8.602;2023-12-14T11:25:44;14.77;;;5.17;;
66739;SDS011;53653;52.188;8.602;2023-12-14T11:28:13;11.57;;;4.32;;
66739;SDS011;53653;52.188;8.602;2023-12-14T11:30:38;9.53;;;4.03;;
66739;SDS011;53653;52.188;8.602;2023-12-14T11:33:04;9.82;;;3.92;;
66739;SDS011;53653;52.188;8.602;2023-12-14T11:35:29;9.03;;;4.03;;
66739;SDS011;53653;52.188;8.602;2023-12-14T11:37:55;10.63;;;4.47;;
66739;SDS011;53653;52.188;8.602;2023-12-14T11:40:27;9.38;;;4.25;;
66739;SDS011;53653;52.188;8.602;2023-12-14T11:42:59;10.27;;;4.47;;
66739;SDS011;53653;52.188;8.602;2023-12-14T11:45:24;8.95;;;4.25;;
66739;SDS011;53653;52.188;8.602;2023-12-14T11:47:51;9.55;;;4.57;;
66739;SDS011;53653;52.188;8.602;2023-12-14T11:50:17;11.57;;;5.83;;
66739;SDS011;53653;52.188;8.602;2023-12-14T11:52:43;12.23;;;5.10;;
66739;SDS011;53653;52.188;8.602;2023-12-14T11:55:11;9.32;;;4.55;;
66739;SDS011;53653;52.188;8.602;2023-12-14T11:57:37;9.18;;;3.97;;
66739;SDS011;53653;52.188;8.602;2023-12-14T12:00:02;9.87;;;4.10;;
66739;SDS011;53653;52.188;8.602;2023-12-14T12:02:30;10.98;;;4.28;;
66739;SDS011;53653;52.188;8.602;2023-12-14T12:04:55;8.87;;;3.97;;
66739;SDS011;53653;52.188;8.602;2023-12-14T12:07:21;16.77;;;5.53;;
66739;SDS011;53653;52.188;8.602;2023-12-14T12:09:46;12.03;;;5.03;;
66739;SDS011;53653;52.188;8.602;2023-12-14T12:12:12;9.82;;;4.57;;
66739;SDS011;53653;52.188;8.602;2023-12-14T12:14:38;12.20;;;4.68;;
66739;SDS011;53653;52.188;8.602;2023-12-14T12:17:05;13.32;;;4.15;;
66739;SDS011;53653;52.188;8.602;2023-12-14T12:19:32;8.17;;;3.90;;
66739;SDS011;53653;52.188;8.602;2023-12-14T12:21:58;8.48;;;3.72;;
66739;SDS011;53653;52.188;8.602;2023-12-14T12:24:23;7.80;;;3.30;;
66739;SDS011;53653;52.188;8.602;2023-12-14T12:26:49;8.00;;;3.00;;
66739;SDS011;53653;52.188;8.602;2023-12-14T12:29:14;7.87;;;3.03;;
66739;SDS011;53653;52.188;8.602;2023-12-14T12:31:40;7.57;;;3.60;;
66739;SDS011;53653;52.188;8.602;2023-12-14T12:34:05;8.43;;;3.33;;
66739;SDS011;53653;52.188;8.602;2023-12-14T12:36:30;11.23;;;4.50;;
66739;SDS011;53653;52.188;8.602;2023-12-14T12:38:56;9.93;;;5.00;;
66739;SDS011;53653;52.188;8.602;2023-12-14T12:41:22;8.87;;;4.00;;
66739;SDS011;53653;52.188;8.602;2023-12-14T12:43:47;7.47;;;3.78;;
66739;SDS011;53653;52.188;8.602;2023-12-14T12:46:12;7.30;;;3.50;;
66739;SDS011;53653;52.188;8.602;2023-12-14T12:48:38;9.00;;;3.77;;
66739;SDS011;53653;52.188;8.602;2023-12-14T12:51:04;8.68;;;3.58;;
66739;SDS011;53653;52.188;8.602;2023-12-14T12:53:30;8.83;;;3.20;;
66739;SDS011;53653;52.188;8.602;2023-12-14T12:55:56;10.75;;;3.85;;
66739;SDS011;53653;52.188;8.602;2023-12-14T12:58:21;7.43;;;3.23;;
66739;SDS011;53653;52.188;8.602;2023-12-14T13:00:46;7.67;;;3.63;;
66739;SDS011;53653;52.188;8.602;2023-12-14T13:03:12;8.38;;;3.67;;
66739;SDS011;53653;52.188;8.602;2023-12-14T13:05:38;9.77;;;4.00;;
66739;SDS011;53653;52.188;8.602;2023-12-14T13:08:03;13.57;;;4.57;;
66739;SDS011;53653;52.188;8.602;2023-12-14T13:10:28;10.93;;;4.13;;
66739;SDS011;53653;52.188;8.602;2023-12-14T13:12:54;9.53;;;3.80;;
66739;SDS011;53653;52.188;8.602;2023-12-14T13:15:21;9.10;;;3.80;;
66739;SDS011;53653;52.188;8.602;2023-12-14T13:17:50;8.32;;;3.78;;
66739;SDS011;53653;52.188;8.602;2023-12-14T13:20:16;9.47;;;3.67;;
66739;SDS011;53653;52.188;8.602;2023-12-14T13:22:43;10.43;;;4.13;;
66739;SDS011;53653;52.188;8.602;2023-12-14T13:25:08;10.47;;;4.03;;
66739;SDS011;53653;52.188;8.602;2023-12-14T13:27:34;10.27;;;4.32;;
66739;SDS011;53653;52.188;8.602;2023-12-14T13:30:02;10.70;;;4.70;;
66739;SDS011;53653;52.188;8.602;2023-12-14T13:32:28;11.83;;;4.33;;
66739;SDS011;53653;52.188;8.602;2023-12-14T13:34:53;8.43;;;4.15;;
66739;SDS011;53653;52.188;8.602;2023-12-14T13:37:19;11.33;;;4.50;;
66739;SDS011;53653;52.188;8.602;2023-12-14T13:39:44;10.00;;;4.57;;
66739;SDS011;53653;52.188;8.602;2023-12-14T13:42:10;10.00;;;4.13;;
66739;SDS011;53653;52.188;8.602;2023-12-14T13:44:35;11.00;;;4.80;;
66739;SDS011;53653;52.188;8.602;2023-12-14T13:47:02;12.37;;;4.40;;
66739;SDS011;53653;52.188;8.602;2023-12-14T13:49:28;10.40;;;4.40;;
66739;SDS011;53653;52.188;8.602;2023-12-14T13:51:53;10.43;;;4.47;;
66739;SDS011;53653;52.188;8.602;2023-12-14T13:54:19;10.10;;;4.73;;
66739;SDS011;53653;52.188;8.602;2023-12-14T13:56:44;9.77;;;4.53;;
66739;SDS011;53653;52.188;8.602;2023-12-14T13:59:10;10.97;;;4.40;;
66739;SDS011;53653;52.188;8.602;2023-12-14T14:01:35;9.50;;;4.33;;
66739;SDS011;53653;52.188;8.602;2023-12-14T14:04:01;12.57;;;4.90;;
66739;SDS011;53653;52.188;8.602;2023-12-14T14:06:27;12.30;;;5.00;;
66739;SDS011;53653;52.188;8.602;2023-12-14T14:08:52;11.77;;;4.80;;
66739;SDS011;53653;52.188;8.602;2023-12-14T14:11:19;11.35;;;4.75;;
66739;SDS011;53653;52.188;8.602;2023-12-14T14:13:45;11.10;;;4.70;;
66739;SDS011;53653;52.188;8.602;2023-12-14T14:16:11;11.73;;;5.07;;
66739;SDS011;53653;52.188;8.602;2023-12-14T14:18:36;11.40;;;5.15;;
66739;SDS011;53653;52.188;8.602;2023-12-14T14:21:02;10.97;;;4.87;;
66739;SDS011;53653;52.188;8.602;2023-12-14T14:23:27;10.60;;;4.87;;
66739;SDS011;53653;52.188;8.602;2023-12-14T14:25:53;11.73;;;4.72;;
66739;SDS011;53653;52.188;8.602;2023-12-14T14:28:19;10.80;;;4.87;;
66739;SDS011;53653;52.188;8.602;2023-12-14T14:30:48;13.70;;;5.03;;
66739;SDS011;53653;52.188;8.602;2023-12-14T14:33:14;12.38;;;5.03;;
66739;SDS011;53653;52.188;8.602;2023-12-14T14:35:46;10.80;;;4.90;;